La Salle, Canada
Current Conditions -  °F | °C
As of 11:00 PM on Friday 24 Oct 2014 (Local Time) from CYWG Reporting Station
Clear Clear  
Wind Chill: 43°   Ceiling: Unl
Heat Index: 48°   Visibility: 15mi
Dew Point: 34°   Wind: 13mph
Humidity: 57%   Direction: 280°W
Pressure: 29.8"   Gusts: NA
Location:  49.68°N, 97.27°W
Report Text: CYWG 250400Z 28011KT 15SM SKC 09/01 A2980 RMK SLP096
Loading
Personal Weather Stations






























Interactive Weather Map
Tropical Storm Tracking
New forecast layout! Learn more

10-Day Weather Forecast

Advertisements
Track Severe Weather on mobile